Thursday, November 23, 2017, 7:24 PM EST
Back to Local

KORE, Orange, Orange Municipal Airport

Location: Orange, MA, United States Lat: 42.572
Local Time: 7:24 PM EST ( 0:24 GMT) Lon: -72.278
Time Zone: US/Eastern Elev: 554 ft

Show me the last for .
Show Decoded

2017-11-23 18:52 METAR KORE 232352Z AUTO 29003KT 10SM CLR 00/M09 A2997 RMK AO2 SLP157 T00001089
                 10039 20000 51004 TSNO =
2017-11-23 17:52 METAR KORE 232252Z AUTO 27005KT 10SM CLR 01/M09 A2997 RMK AO2 SLP157 T00111094
                 TSNO =
2017-11-23 16:52 METAR KORE 232152Z AUTO 29006KT 10SM CLR 02/M09 A2997 RMK AO2 SLP154 T00171094
                 TSNO =
2017-11-23 15:52 METAR KORE 232052Z AUTO 28004KT 10SM CLR 03/M08 A2996 RMK AO2 SLP151 T00281083
                 55009 TSNO =
2017-11-23 14:52 METAR KORE 231952Z AUTO 31004KT 10SM CLR 03/M08 A2996 RMK AO2 SLP150 T00331083
                 TSNO =
2017-11-23 13:52 METAR KORE 231852Z AUTO 26005KT 10SM CLR 03/M08 A2997 RMK AO2 SLP156 T00331083
                 TSNO =
2017-11-23 12:52 METAR KORE 231752Z AUTO 26006KT 10SM CLR 02/M08 A2999 RMK AO2 SLP161 T00221083
                 10028 21044 58013 TSNO =
2017-11-23 11:52 METAR KORE 231652Z AUTO VRB03KT 10SM CLR 02/M08 A3000 RMK AO2 SLP165 T00171083
                 TSNO =
2017-11-23 10:52 METAR KORE 231552Z AUTO 28005KT 10SM CLR 01/M09 A3003 RMK AO2 SLP177 T00061089
                 TSNO =
2017-11-23 09:52 METAR KORE 231452Z AUTO 31011KT 10SM CLR M01/M08 A3003 RMK AO2 SLP174 T10061083
                 58001 TSNO =
2017-11-23 08:52 METAR KORE 231352Z AUTO 36008KT 10SM CLR M01/M08 A3004 RMK AO2 SLP178 T10111078
                 TSNO =
2017-11-23 07:52 METAR KORE 231252Z AUTO 33006KT 10SM CLR M03/M07 A3003 RMK AO2 SLP177 T10281072
                 TSNO =
2017-11-23 06:52 METAR KORE 231152Z AUTO 01003KT 10SM CLR M04/M08 A3003 RMK AO2 SLP176 70016
                 T10441078 10000 21044 50009 TSNO =
2017-11-23 05:52 METAR KORE 231052Z AUTO 00000KT 10SM CLR M03/M08 A3004 RMK AO2 SLP179 T10281078
                 TSNO =
2017-11-23 04:52 METAR KORE 230952Z AUTO 35009KT 10SM CLR M02/M07 A3001 RMK AO2 SLP169 T10221072
                 TSNO =
2017-11-23 03:52 METAR KORE 230852Z AUTO 35009KT 10SM CLR M02/M07 A3000 RMK AO2 SLP166 T10221072
                 51009 TSNO =
2017-11-23 02:52 METAR KORE 230752Z AUTO 33006KT 10SM CLR M02/M07 A3000 RMK AO2 SLP165 T10171067
                 TSNO =
2017-11-23 01:52 METAR KORE 230652Z AUTO 33005KT 10SM CLR M01/M06 A3000 RMK AO2 SLP163 T10111061
                 TSNO =
2017-11-23 00:52 METAR KORE 230552Z AUTO 34010KT 10SM CLR 00/M06 A2998 RMK AO2 SLP157 T00001056
                 10028 21006 51015 TSNO =
2017-11-22 23:52 METAR KORE 230452Z AUTO 32011KT 10SM SCT035 01/M04 A2997 RMK AO2 SLP154
                 T00061044 400611011 TSNO =
2017-11-22 22:52 METAR KORE 230352Z AUTO 33008KT 10SM OVC036 02/M03 A2996 RMK AO2 SLP149
                 T00171033 TSNO =
2017-11-22 21:52 METAR KORE 230252Z AUTO 36010KT 10SM BKN032 OVC043 02/M02 A2993 RMK AO2 SLP142
                 T00171017 52005 TSNO =
2017-11-22 20:52 METAR KORE 230152Z AUTO 32009KT 10SM OVC045 03/M02 A2993 RMK AO2 SLP141
                 T00281017 TSNO =
2017-11-22 19:52 METAR KORE 230052Z AUTO 34008KT 10SM OVC043 03/M02 A2992 RMK AO2 SLP136
                 T00281017 TSNO =

Support USWX by starting your Amazon purchase here.